Time;durP1;ratioP1;P1;durP2;ratioP2;P2;SDS_P1;SDS_P2;PMS_P1;PMS_P2;Temp;Humidity;BMP_temperature;BMP_pressure;BME280_temperature;BME280_humidity;BME280_pressure;Samples;Min_cycle;Max_cycle;Signal;HPM_P1;HPM_P2
2024/03/17 00:02:25;;;;;;;8.93;2.30;;;4.60;99.90;;;;;;5034325;28;20041;-51
2024/03/17 00:04:51;;;;;;;7.80;2.77;;;4.50;99.90;;;;;;5034028;28;20163;-52
2024/03/17 00:07:16;;;;;;;7.37;2.20;;;4.50;99.90;;;;;;5034014;28;20437;-53
2024/03/17 00:09:42;;;;;;;6.30;2.43;;;4.50;99.90;;;;;;5033901;28;20026;-51
2024/03/17 00:12:08;;;;;;;7.53;2.73;;;4.50;99.90;;;;;;5033654;28;20383;-52
2024/03/17 00:14:34;;;;;;;6.00;2.30;;;4.40;99.90;;;;;;5033928;28;20112;-54
2024/03/17 00:17:01;;;;;;;6.10;2.30;;;4.40;99.90;;;;;;5034142;28;20041;-54
2024/03/17 00:19:26;;;;;;;6.63;2.50;;;4.40;99.90;;;;;;5033843;28;20051;-53
2024/03/17 00:21:52;;;;;;;4.97;1.97;;;4.40;99.90;;;;;;5033873;28;20041;-52
2024/03/17 00:24:19;;;;;;;6.27;2.37;;;4.40;99.90;;;;;;5033926;28;20128;-52
2024/03/17 00:26:45;;;;;;;5.67;2.90;;;4.40;99.90;;;;;;5033826;28;20123;-50
2024/03/17 00:29:11;;;;;;;6.00;2.70;;;4.40;99.90;;;;;;5016219;28;20064;-50
2024/03/17 00:31:37;;;;;;;8.27;3.00;;;4.30;99.90;;;;;;5033774;28;20037;-50
2024/03/17 00:34:04;;;;;;;8.97;3.13;;;4.30;99.90;;;;;;5033684;28;20021;-53
2024/03/17 00:36:30;;;;;;;8.03;3.07;;;4.30;99.90;;;;;;5034110;28;20052;-54
2024/03/17 00:38:56;;;;;;;8.33;2.83;;;4.20;99.90;;;;;;5033607;28;20032;-52
2024/03/17 00:41:23;;;;;;;8.33;2.90;;;4.20;99.90;;;;;;5033685;28;20079;-53
2024/03/17 00:43:52;;;;;;;5.90;3.00;;;4.10;99.90;;;;;;5033396;28;20029;-53
2024/03/17 00:46:21;;;;;;;10.60;3.20;;;4.20;99.90;;;;;;5033276;28;20025;-50
2024/03/17 00:48:49;;;;;;;7.40;3.10;;;4.20;99.90;;;;;;5015608;28;20033;-49
2024/03/17 00:51:15;;;;;;;9.43;3.50;;;4.20;99.90;;;;;;5033618;28;20517;-51
2024/03/17 00:53:40;;;;;;;9.67;3.77;;;4.30;99.90;;;;;;5033024;28;20021;-53
2024/03/17 00:56:06;;;;;;;8.20;3.50;;;4.30;99.90;;;;;;5033234;28;20518;-54
2024/03/17 00:58:32;;;;;;;7.27;3.33;;;4.30;99.90;;;;;;5033119;28;20136;-54
2024/03/17 01:00:57;;;;;;;5.80;3.00;;;4.30;99.90;;;;;;5015423;28;20037;-52
2024/03/17 01:03:23;;;;;;;9.00;3.10;;;4.30;99.90;;;;;;5032893;28;20053;-53
2024/03/17 01:05:52;;;;;;;6.57;3.40;;;4.30;99.90;;;;;;5032948;28;20478;-54
2024/03/17 01:08:18;;;;;;;8.73;3.05;;;4.30;99.90;;;;;;5032794;28;20033;-51
2024/03/17 01:10:45;;;;;;;7.93;2.63;;;4.40;99.90;;;;;;5032838;28;20113;-52
2024/03/17 01:13:11;;;;;;;6.70;2.97;;;4.40;99.90;;;;;;5032659;28;20057;-49
2024/03/17 01:15:39;;;;;;;6.17;2.60;;;4.30;99.90;;;;;;5032860;28;20022;-53
2024/03/17 01:18:05;;;;;;;8.37;2.97;;;4.40;99.90;;;;;;5032802;28;20060;-53
2024/03/17 01:20:33;;;;;;;7.80;3.00;;;4.40;99.90;;;;;;5032565;28;20375;-54
2024/03/17 01:22:58;;;;;;;6.87;2.80;;;4.40;99.90;;;;;;5032496;28;20063;-53
2024/03/17 01:25:29;;;;;;;5.53;3.00;;;4.50;99.90;;;;;;5031885;28;20069;-52
2024/03/17 01:27:56;;;;;;;4.50;2.70;;;4.50;99.90;;;;;;5032679;28;20041;-52
2024/03/17 01:30:22;;;;;;;5.93;2.77;;;4.50;99.90;;;;;;5032499;28;20037;-54
2024/03/17 01:32:48;;;;;;;7.77;2.60;;;4.50;99.90;;;;;;5032559;28;20025;-50
2024/03/17 01:35:14;;;;;;;5.93;2.87;;;4.50;99.90;;;;;;5032347;28;20029;-50
2024/03/17 01:37:40;;;;;;;8.63;2.80;;;4.50;99.90;;;;;;5032411;28;20044;-53
2024/03/17 01:40:10;;;;;;;7.03;2.60;;;4.60;99.90;;;;;;5032271;28;20394;-50
2024/03/17 01:42:37;;;;;;;6.07;2.60;;;4.60;99.90;;;;;;5032450;28;20065;-50
2024/03/17 01:45:33;;;;;;;5.73;2.50;;;4.60;99.90;;;;;;5032054;28;20041;-51
2024/03/17 01:48:01;;;;;;;6.83;2.70;;;4.80;99.90;;;;;;5032257;28;20044;-52
2024/03/17 01:50:34;;;;;;;9.37;3.10;;;4.80;99.90;;;;;;5032291;28;20395;-51
2024/03/17 01:53:04;;;;;;;8.90;3.13;;;4.90;99.90;;;;;;5031992;28;20044;-50
2024/03/17 01:55:32;;;;;;;7.30;2.83;;;4.90;99.90;;;;;;5032087;28;20047;-53
2024/03/17 01:57:58;;;;;;;4.53;2.60;;;4.80;99.90;;;;;;5014394;28;20033;-51
2024/03/17 02:00:23;;;;;;;8.40;2.43;;;4.80;99.90;;;;;;5031903;28;20037;-51
2024/03/17 02:02:49;;;;;;;6.13;2.83;;;4.70;99.90;;;;;;5031866;28;20108;-50
2024/03/17 02:05:15;;;;;;;6.83;2.40;;;4.80;99.90;;;;;;5032069;28;20389;-50
2024/03/17 02:07:40;;;;;;;6.80;2.30;;;4.80;99.90;;;;;;5031869;28;20033;-50
2024/03/17 02:10:08;;;;;;;4.30;2.40;;;4.80;99.90;;;;;;5031842;28;20471;-51
2024/03/17 02:12:35;;;;;;;8.03;2.60;;;4.90;99.90;;;;;;5031814;28;20065;-52
2024/03/17 02:15:01;;;;;;;6.53;2.60;;;5.00;99.90;;;;;;5013944;28;20044;-52
2024/03/17 02:17:30;;;;;;;5.97;2.30;;;5.00;99.90;;;;;;5031824;28;20083;-51
2024/03/17 02:19:55;;;;;;;9.77;2.57;;;4.90;99.90;;;;;;5031704;28;20041;-52
2024/03/17 02:22:21;;;;;;;4.80;2.47;;;4.90;99.90;;;;;;5031650;28;20447;-52
2024/03/17 02:24:46;;;;;;;5.00;2.80;;;4.90;99.90;;;;;;5031529;28;20613;-53
2024/03/17 02:27:12;;;;;;;5.83;2.70;;;5.00;99.90;;;;;;5031591;28;20029;-53
2024/03/17 02:29:39;;;;;;;7.33;2.23;;;4.90;99.90;;;;;;5031761;28;20290;-52
2024/03/17 02:32:07;;;;;;;7.73;2.70;;;4.90;99.90;;;;;;5031611;28;20041;-50
2024/03/17 02:34:35;;;;;;;6.33;2.50;;;4.90;99.90;;;;;;5031532;28;20037;-50
2024/03/17 02:37:03;;;;;;;9.88;2.72;;;4.90;99.90;;;;;;5035304;28;20386;-52
2024/03/17 02:39:35;;;;;;;9.00;2.53;;;5.00;99.90;;;;;;5035654;28;20036;-50
2024/03/17 02:42:05;;;;;;;6.03;2.50;;;5.10;99.90;;;;;;5035678;28;20041;-49
2024/03/17 02:44:32;;;;;;;8.07;2.77;;;5.30;99.90;;;;;;5035504;28;20447;-52
2024/03/17 02:47:01;;;;;;;9.20;2.93;;;5.30;99.90;;;;;;5035469;28;20033;-49
2024/03/17 02:49:35;;;;;;;4.72;2.53;;;5.30;99.90;;;;;;5017900;28;20021;-51
2024/03/17 02:52:01;;;;;;;5.70;2.30;;;5.30;99.90;;;;;;5035433;28;20423;-50
2024/03/17 02:54:26;;;;;;;6.33;2.80;;;5.30;99.90;;;;;;5035224;28;20068;-51
2024/03/17 02:56:52;;;;;;;9.23;2.90;;;5.30;99.90;;;;;;5035326;28;20029;-51
2024/03/17 02:59:17;;;;;;;10.13;3.00;;;5.30;99.90;;;;;;5035360;28;20106;-50
2024/03/17 03:01:44;;;;;;;7.20;2.70;;;5.20;99.90;;;;;;5035237;28;20029;-54
2024/03/17 03:04:10;;;;;;;4.53;2.63;;;5.20;99.90;;;;;;5035067;28;20080;-54
2024/03/17 03:06:38;;;;;;;7.23;2.93;;;5.20;99.90;;;;;;5035085;28;20498;-54
2024/03/17 03:09:05;;;;;;;6.63;2.50;;;5.20;99.90;;;;;;5035159;28;20040;-50
2024/03/17 03:11:31;;;;;;;7.37;2.93;;;5.10;99.90;;;;;;5035058;28;20037;-51
2024/03/17 03:13:56;;;;;;;6.87;2.67;;;5.10;99.90;;;;;;5035011;28;20113;-49
2024/03/17 03:16:22;;;;;;;6.13;2.70;;;5.10;99.90;;;;;;5017309;28;20437;-50
2024/03/17 03:18:50;;;;;;;8.20;3.30;;;5.10;99.90;;;;;;5035008;28;20025;-52
2024/03/17 03:21:15;;;;;;;7.17;3.20;;;5.10;99.90;;;;;;5034859;28;20402;-50
2024/03/17 03:23:41;;;;;;;6.33;3.07;;;5.00;99.90;;;;;;5034879;28;20030;-51
2024/03/17 03:26:08;;;;;;;6.37;3.23;;;5.00;99.90;;;;;;5034840;28;20052;-52
2024/03/17 03:28:35;;;;;;;7.83;2.90;;;5.00;99.90;;;;;;5034684;28;20103;-54
2024/03/17 03:31:02;;;;;;;11.13;3.50;;;4.90;99.90;;;;;;5034550;28;20486;-54
2024/03/17 03:33:28;;;;;;;9.40;3.03;;;4.90;99.90;;;;;;5034948;28;20099;-50
2024/03/17 03:35:55;;;;;;;8.67;3.07;;;4.90;99.90;;;;;;5034735;28;20474;-54
2024/03/17 03:38:21;;;;;;;9.83;3.57;;;4.90;99.90;;;;;;5034479;28;20041;-51
2024/03/17 03:40:50;;;;;;;8.37;3.67;;;4.90;99.90;;;;;;5034588;28;20052;-50
2024/03/17 03:43:16;;;;;;;10.20;3.38;;;4.90;99.90;;;;;;5034445;28;20045;-51
2024/03/17 03:45:42;;;;;;;7.90;3.50;;;4.80;99.90;;;;;;5034508;28;20040;-50
2024/03/17 03:48:08;;;;;;;8.30;3.50;;;4.80;99.90;;;;;;5033669;28;20073;-50
2024/03/17 03:50:35;;;;;;;7.60;3.27;;;4.80;99.90;;;;;;5034356;28;20029;-52
2024/03/17 03:53:00;;;;;;;9.43;4.13;;;4.80;99.90;;;;;;5016480;28;20038;-52
2024/03/17 03:55:26;;;;;;;12.47;4.00;;;4.80;99.90;;;;;;5034457;28;20025;-51
2024/03/17 03:57:54;;;;;;;10.37;4.30;;;4.80;99.90;;;;;;5034294;28;20094;-51
2024/03/17 04:00:23;;;;;;;10.60;4.47;;;4.80;99.90;;;;;;5034089;28;20026;-53
2024/03/17 04:02:51;;;;;;;10.30;4.25;;;4.70;99.90;;;;;;5034097;28;20050;-52
2024/03/17 04:05:20;;;;;;;8.80;3.67;;;4.70;99.90;;;;;;5033889;28;20037;-53
2024/03/17 04:07:47;;;;;;;11.35;3.90;;;4.70;99.90;;;;;;5034061;28;20056;-54
2024/03/17 04:10:13;;;;;;;11.13;3.63;;;4.70;99.90;;;;;;5033916;28;20038;-51
2024/03/17 04:12:39;;;;;;;11.97;4.00;;;4.70;99.90;;;;;;5033982;28;20025;-50
2024/03/17 04:15:09;;;;;;;8.17;4.07;;;4.70;99.90;;;;;;5034181;28;20406;-49
2024/03/17 04:17:37;;;;;;;9.53;3.80;;;4.70;99.90;;;;;;5033917;28;20398;-53
2024/03/17 04:20:04;;;;;;;12.57;3.83;;;4.70;99.90;;;;;;5033769;28;20033;-53
2024/03/17 04:22:30;;;;;;;10.23;3.97;;;4.70;99.90;;;;;;5033805;28;20500;-53
2024/03/17 04:24:57;;;;;;;10.40;4.00;;;4.70;99.90;;;;;;5033741;28;20030;-53
2024/03/17 04:27:31;;;;;;;11.50;4.10;;;4.70;99.90;;;;;;5033660;28;20037;-52
2024/03/17 04:29:59;;;;;;;7.80;3.70;;;4.80;99.90;;;;;;5033621;28;20064;-52
2024/03/17 04:32:28;;;;;;;9.27;4.13;;;4.70;99.90;;;;;;5033698;28;20047;-54
2024/03/17 04:34:53;;;;;;;13.50;3.60;;;4.70;99.90;;;;;;5033597;28;20429;-51
2024/03/17 04:37:19;;;;;;;10.87;3.80;;;4.60;99.90;;;;;;5033673;28;20068;-53
2024/03/17 04:39:47;;;;;;;12.63;4.47;;;4.50;99.90;;;;;;5033398;28;20060;-51
2024/03/17 04:42:14;;;;;;;10.40;4.00;;;4.40;99.90;;;;;;5033598;28;20041;-54
2024/03/17 04:44:41;;;;;;;11.07;4.43;;;4.40;99.90;;;;;;5015535;28;20056;-50
2024/03/17 04:47:06;;;;;;;8.27;3.80;;;4.30;99.90;;;;;;5033313;28;20433;-50
2024/03/17 04:49:40;;;;;;;10.87;3.80;;;4.30;99.90;;;;;;5033190;28;20041;-53
2024/03/17 04:52:09;;;;;;;9.03;4.03;;;4.30;99.90;;;;;;5033265;28;20529;-50
2024/03/17 04:54:35;;;;;;;;;;;4.30;99.90;;;;;;5033555;28;20105;-52
2024/03/17 04:57:01;;;;;;;12.37;3.90;;;4.40;99.90;;;;;;5033168;28;20354;-52
2024/03/17 04:59:27;;;;;;;10.13;4.27;;;4.50;99.90;;;;;;5031945;28;20509;-52
2024/03/17 05:01:53;;;;;;;9.20;4.33;;;4.50;99.90;;;;;;5033116;28;20482;-51
2024/03/17 05:04:19;;;;;;;12.90;4.47;;;4.50;99.90;;;;;;5033064;28;20033;-53
2024/03/17 05:06:49;;;;;;;9.63;3.90;;;4.50;99.90;;;;;;5032867;28;20054;-49
2024/03/17 05:09:18;;;;;;;9.93;4.57;;;4.50;99.90;;;;;;5032898;28;20371;-50
2024/03/17 05:11:44;;;;;;;7.20;3.92;;;4.50;99.90;;;;;;5032936;28;20026;-52
2024/03/17 05:14:10;;;;;;;9.93;4.27;;;4.50;99.90;;;;;;5032708;28;20501;-50
2024/03/17 05:16:35;;;;;;;10.33;4.50;;;4.50;99.90;;;;;;5032927;28;20453;-51
2024/03/17 05:19:01;;;;;;;8.83;3.90;;;4.60;99.90;;;;;;5032988;28;20030;-52
2024/03/17 05:21:30;;;;;;;11.17;4.10;;;4.80;99.90;;;;;;5033244;28;20030;-52
2024/03/17 05:23:57;;;;;;;9.50;3.87;;;4.90;99.90;;;;;;5015012;28;20560;-52
2024/03/17 05:26:24;;;;;;;9.97;3.97;;;4.90;99.90;;;;;;5032596;28;20052;-49
2024/03/17 05:28:50;;;;;;;8.70;4.10;;;4.90;99.90;;;;;;5032593;28;20116;-54
2024/03/17 05:31:17;;;;;;;9.73;3.87;;;4.80;99.90;;;;;;5032555;28;20112;-50
2024/03/17 05:33:46;;;;;;;9.33;3.70;;;4.90;99.90;;;;;;5032637;28;20440;-50
2024/03/17 05:36:12;;;;;;;11.45;4.30;;;4.90;99.90;;;;;;5032662;28;20108;-51
2024/03/17 05:38:37;;;;;;;8.70;3.77;;;4.90;99.90;;;;;;5032421;28;20538;-50
2024/03/17 05:41:05;;;;;;;9.03;3.67;;;5.00;99.90;;;;;;5032440;28;20037;-51
2024/03/17 05:43:38;;;;;;;10.50;3.80;;;5.20;99.90;;;;;;5032311;28;20044;-50
2024/03/17 05:46:13;;;;;;;7.17;3.60;;;5.20;99.90;;;;;;5032256;28;20403;-51
2024/03/17 05:48:40;;;;;;;6.17;3.20;;;5.30;99.90;;;;;;5032247;28;20067;-49
2024/03/17 05:51:06;;;;;;;6.97;3.07;;;5.30;99.90;;;;;;5032517;28;20022;-51
2024/03/17 05:53:32;;;;;;;9.17;3.43;;;5.30;99.90;;;;;;5032072;28;20036;-50
2024/03/17 05:56:02;;;;;;;10.73;4.10;;;5.30;99.90;;;;;;5032249;28;20437;-52
2024/03/17 05:58:28;;;;;;;10.10;3.83;;;5.40;99.90;;;;;;5032458;28;20116;-50
2024/03/17 06:00:53;;;;;;;10.83;4.03;;;5.50;99.90;;;;;;5032068;28;20121;-49
2024/03/17 06:03:19;;;;;;;12.00;3.53;;;5.50;99.90;;;;;;5031893;28;20037;-49
2024/03/17 06:05:48;;;;;;;7.90;3.43;;;5.50;99.90;;;;;;5031979;28;20033;-51
2024/03/17 06:08:14;;;;;;;9.70;3.50;;;5.50;99.90;;;;;;5031965;28;20087;-52
2024/03/17 06:10:45;;;;;;;8.70;3.50;;;5.50;99.90;;;;;;5031850;28;20044;-50
2024/03/17 06:13:12;;;;;;;6.57;3.17;;;5.60;99.90;;;;;;5031844;28;20108;-49
2024/03/17 06:15:39;;;;;;;10.23;4.07;;;5.70;99.90;;;;;;5031870;28;20079;-49
2024/03/17 06:18:08;;;;;;;10.20;4.20;;;5.70;99.90;;;;;;5032063;28;20040;-54
2024/03/17 06:20:34;;;;;;;9.55;3.60;;;5.70;99.90;;;;;;5031770;28;20046;-52
2024/03/17 06:23:00;;;;;;;11.07;3.93;;;5.80;99.90;;;;;;5031751;28;20033;-52
2024/03/17 06:25:26;;;;;;;8.83;3.47;;;5.90;99.90;;;;;;5031847;28;20080;-51
2024/03/17 06:27:52;;;;;;;7.17;3.20;;;6.00;99.90;;;;;;5031795;28;20486;-51
2024/03/17 06:30:18;;;;;;;8.73;3.53;;;6.10;99.90;;;;;;5031455;28;20017;-51
2024/03/17 06:32:45;;;;;;;5.80;2.80;;;6.10;99.90;;;;;;5031852;28;20065;-50
2024/03/17 06:35:11;;;;;;;10.13;2.90;;;6.20;99.90;;;;;;5031472;28;20037;-53
2024/03/17 06:37:38;;;;;;;8.93;3.20;;;6.20;99.90;;;;;;5031700;28;20033;-51
2024/03/17 06:40:05;;;;;;;6.70;3.17;;;6.20;99.90;;;;;;5031531;28;20061;-50
2024/03/17 06:42:31;;;;;;;6.03;3.47;;;6.30;99.90;;;;;;5031777;28;20038;-53
2024/03/17 06:44:57;;;;;;;6.47;3.30;;;6.40;99.90;;;;;;5031535;28;20043;-53
2024/03/17 06:47:22;;;;;;;6.77;3.17;;;6.40;99.90;;;;;;5031517;28;20112;-50
2024/03/17 06:49:48;;;;;;;8.07;3.70;;;6.50;99.90;;;;;;5031383;28;20033;-51
2024/03/17 06:52:14;;;;;;;7.27;3.30;;;6.60;99.90;;;;;;5031551;28;20022;-53
2024/03/17 06:54:39;;;;;;;6.07;2.90;;;6.80;99.90;;;;;;5013808;28;20029;-54
2024/03/17 06:57:06;;;;;;;7.83;3.13;;;6.90;99.90;;;;;;5031520;28;20494;-51
2024/03/17 06:59:34;;;;;;;5.80;2.90;;;7.10;99.90;;;;;;5013639;28;20486;-51
2024/03/17 07:02:01;;;;;;;6.35;2.72;;;7.30;99.90;;;;;;5031396;28;20041;-52
2024/03/17 07:04:26;;;;;;;5.23;2.10;;;7.50;99.90;;;;;;5031081;28;20095;-52
2024/03/17 07:06:52;;;;;;;6.67;2.70;;;7.60;99.90;;;;;;5031485;28;20437;-50
2024/03/17 07:09:17;;;;;;;5.53;2.27;;;7.80;99.90;;;;;;5031348;28;20026;-50
2024/03/17 07:11:45;;;;;;;9.40;2.93;;;8.10;99.90;;;;;;5031309;28;20033;-52
2024/03/17 07:14:10;;;;;;;6.57;2.40;;;8.30;99.90;;;;;;5031173;28;20021;-49
2024/03/17 07:16:36;;;;;;;4.53;2.30;;;8.60;99.90;;;;;;5031252;28;20379;-50
2024/03/17 07:19:02;;;;;;;4.73;2.37;;;8.70;99.90;;;;;;5031325;28;20037;-53
2024/03/17 07:21:28;;;;;;;6.83;2.93;;;8.80;99.90;;;;;;5031282;28;20438;-51
2024/03/17 07:23:54;;;;;;;4.87;2.40;;;9.00;99.90;;;;;;5034050;28;20025;-52
2024/03/17 07:26:19;;;;;;;4.83;1.90;;;9.20;99.90;;;;;;5034929;28;20211;-52
2024/03/17 07:28:45;;;;;;;4.63;2.43;;;9.10;99.90;;;;;;5034945;28;20450;-50
2024/03/17 07:31:11;;;;;;;3.77;2.20;;;9.00;99.90;;;;;;5034769;28;20036;-49
2024/03/17 07:33:37;;;;;;;2.83;1.90;;;9.10;99.90;;;;;;5034580;28;20487;-50
2024/03/17 07:36:05;;;;;;;5.30;1.90;;;9.30;99.90;;;;;;5034930;28;20029;-51
2024/03/17 07:38:30;;;;;;;3.23;1.90;;;9.30;99.90;;;;;;5034701;28;20108;-50
2024/03/17 07:41:05;;;;;;;5.33;2.40;;;9.20;99.90;;;;;;5034869;28;20124;-51
2024/03/17 07:43:35;;;;;;;4.80;2.23;;;9.20;99.90;;;;;;5034591;28;20041;-52
2024/03/17 07:46:03;;;;;;;5.13;2.10;;;9.20;99.90;;;;;;5034589;28;20037;-50
2024/03/17 07:48:31;;;;;;;4.60;2.10;;;9.20;99.90;;;;;;5034414;28;20037;-52
2024/03/17 07:51:03;;;;;;;3.20;1.70;;;9.40;99.90;;;;;;5034485;28;20034;-51
2024/03/17 07:53:32;;;;;;;5.30;1.80;;;9.50;99.90;;;;;;5034648;28;20033;-50
2024/03/17 07:55:59;;;;;;;3.53;1.65;;;9.60;99.90;;;;;;5034274;28;20025;-50
2024/03/17 07:58:25;;;;;;;2.73;1.80;;;9.60;99.90;;;;;;5034275;28;20112;-51
2024/03/17 08:00:52;;;;;;;3.80;1.63;;;9.60;99.90;;;;;;5034089;28;20041;-52
2024/03/17 08:03:18;;;;;;;3.80;1.60;;;9.60;99.90;;;;;;5034005;28;20041;-52
2024/03/17 08:05:51;;;;;;;4.47;1.70;;;9.50;99.90;;;;;;5034203;28;20511;-51
2024/03/17 08:08:17;;;;;;;2.80;1.40;;;9.40;99.90;;;;;;5034175;28;20068;-54
2024/03/17 08:10:43;;;;;;;2.33;1.33;;;9.50;99.90;;;;;;5016539;28;20065;-54
2024/03/17 08:13:13;;;;;;;4.13;1.57;;;9.60;99.90;;;;;;5033927;28;20136;-50
2024/03/17 08:15:39;;;;;;;4.10;1.30;;;9.80;99.90;;;;;;5034072;28;20087;-50
2024/03/17 08:18:07;;;;;;;3.73;1.60;;;10.00;99.90;;;;;;5033956;28;20040;-52
2024/03/17 08:20:37;;;;;;;2.90;1.45;;;10.30;99.90;;;;;;5034092;28;20034;-50
2024/03/17 08:23:03;;;;;;;3.50;1.60;;;10.90;99.90;;;;;;5033834;28;20056;-54
2024/03/17 08:25:28;;;;;;;2.70;1.30;;;11.30;99.90;;;;;;5033691;28;20038;-53
2024/03/17 08:27:54;;;;;;;2.57;1.30;;;11.90;99.90;;;;;;5015932;28;20362;-53
2024/03/17 08:30:20;;;;;;;2.75;1.45;;;12.30;99.90;;;;;;5033633;28;20022;-51
2024/03/17 08:32:45;;;;;;;2.47;1.60;;;12.30;99.90;;;;;;5033726;28;20107;-54
2024/03/17 08:35:11;;;;;;;3.30;1.70;;;12.20;99.90;;;;;;5033147;28;20029;-54
2024/03/17 08:37:36;;;;;;;4.47;1.40;;;11.90;99.90;;;;;;5015789;28;20092;-51
2024/03/17 08:40:03;;;;;;;3.17;1.73;;;11.90;99.90;;;;;;5033427;28;20029;-54
2024/03/17 08:42:28;;;;;;;3.05;1.38;;;11.90;99.90;;;;;;5033484;28;20037;-51
2024/03/17 08:44:54;;;;;;;4.88;1.40;;;12.00;99.90;;;;;;5033219;28;20025;-51
2024/03/17 08:47:19;;;;;;;3.97;1.77;;;12.00;99.90;;;;;;5033318;28;20351;-51
2024/03/17 08:49:45;;;;;;;3.90;1.50;;;11.90;99.90;;;;;;5033168;28;20037;-51
2024/03/17 08:52:11;;;;;;;3.55;1.67;;;11.90;99.90;;;;;;5033419;28;20037;-53
2024/03/17 08:54:37;;;;;;;3.70;1.50;;;11.90;99.90;;;;;;5033206;28;20061;-51
2024/03/17 08:57:02;;;;;;;2.70;1.70;;;11.80;99.90;;;;;;5033042;28;20064;-50
2024/03/17 08:59:28;;;;;;;3.05;1.40;;;11.80;99.90;;;;;;5032893;28;20087;-54
2024/03/17 09:01:53;;;;;;;4.03;1.73;;;11.90;99.90;;;;;;5015217;28;20034;-51
2024/03/17 09:04:19;;;;;;;2.08;1.42;;;11.90;99.90;;;;;;5032857;28;20446;-50
2024/03/17 09:06:45;;;;;;;2.40;1.60;;;11.90;99.90;;;;;;5032718;28;20033;-51
2024/03/17 09:09:13;;;;;;;3.40;1.40;;;11.80;99.90;;;;;;5032833;28;20064;-50
2024/03/17 09:11:39;;;;;;;4.07;1.70;;;11.90;99.90;;;;;;5015160;28;20702;-54
2024/03/17 09:14:04;;;;;;;3.43;1.53;;;11.70;99.90;;;;;;5032767;28;20386;-50
2024/03/17 09:16:31;;;;;;;2.28;1.10;;;11.70;99.90;;;;;;5032696;28;20036;-49
2024/03/17 09:18:57;;;;;;;4.63;2.20;;;11.70;99.90;;;;;;5032677;28;20029;-50
2024/03/17 09:21:23;;;;;;;2.93;1.50;;;11.60;99.90;;;;;;5032554;28;20040;-50
2024/03/17 09:23:49;;;;;;;5.07;1.70;;;11.50;99.90;;;;;;5032440;28;20034;-51
2024/03/17 09:26:17;;;;;;;4.17;1.53;;;11.50;99.90;;;;;;5032521;28;20113;-50
2024/03/17 09:28:43;;;;;;;3.40;1.47;;;11.40;99.90;;;;;;5032400;28;20041;-53
2024/03/17 09:31:11;;;;;;;3.70;1.57;;;11.30;99.90;;;;;;5032334;28;20029;-54
2024/03/17 09:33:36;;;;;;;3.47;1.87;;;11.40;99.90;;;;;;5032420;28;20441;-52
2024/03/17 09:36:07;;;;;;;3.70;1.43;;;11.40;99.90;;;;;;5032441;28;20030;-50
2024/03/17 09:38:34;;;;;;;5.07;2.60;;;11.50;99.90;;;;;;5032322;28;20080;-53
2024/03/17 09:41:01;;;;;;;2.83;1.57;;;11.50;99.90;;;;;;5032268;28;20041;-49
2024/03/17 09:43:33;;;;;;;7.83;3.30;;;11.70;99.90;;;;;;5031986;28;20033;-51
2024/03/17 09:46:01;;;;;;;6.67;2.30;;;11.80;99.90;;;;;;5031589;28;20479;-49
2024/03/17 09:48:28;;;;;;;3.80;1.90;;;12.00;99.90;;;;;;5032244;28;20040;-51
2024/03/17 09:50:55;;;;;;;3.28;1.50;;;12.20;99.90;;;;;;5032163;28;20033;-51
2024/03/17 09:53:26;;;;;;;3.47;1.75;;;12.30;99.90;;;;;;5031938;28;20060;-52
2024/03/17 09:55:56;;;;;;;3.65;1.45;;;12.20;99.90;;;;;;5031964;28;20079;-50
2024/03/17 09:58:22;;;;;;;3.13;1.67;;;12.30;99.90;;;;;;5032307;28;20435;-53
2024/03/17 10:00:47;;;;;;;5.00;1.70;;;12.20;99.90;;;;;;5031971;28;20080;-50
2024/03/17 10:03:51;;;;;;;4.63;1.95;;;12.30;99.90;;;;;;5031899;28;20037;-53
2024/03/17 10:06:18;;;;;;;5.88;1.70;;;12.30;99.90;;;;;;5031907;28;20083;-51
2024/03/17 10:08:46;;;;;;;3.53;1.70;;;12.30;99.90;;;;;;5014430;28;20071;-51
2024/03/17 10:11:13;;;;;;;5.05;1.80;;;12.40;99.90;;;;;;5031863;28;20037;-50
2024/03/17 10:13:39;;;;;;;2.85;1.67;;;12.50;99.90;;;;;;5032022;28;20032;-50
2024/03/17 10:16:05;;;;;;;4.25;1.80;;;12.40;99.90;;;;;;5031675;28;20394;-51
2024/03/17 10:18:31;;;;;;;6.10;1.90;;;12.50;99.90;;;;;;5031735;28;20124;-53
2024/03/17 10:20:58;;;;;;;4.82;2.20;;;12.70;99.90;;;;;;5031739;28;20120;-53
2024/03/17 10:23:24;;;;;;;3.80;1.52;;;12.70;99.90;;;;;;5031613;28;20501;-51
2024/03/17 10:25:50;;;;;;;8.20;3.53;;;12.70;99.90;;;;;;5031610;28;20033;-50
2024/03/17 10:28:17;;;;;;;6.30;3.28;;;12.80;99.90;;;;;;5031590;28;20041;-54
2024/03/17 10:30:58;;;;;;;4.72;2.42;;;12.80;99.90;;;;;;5031417;28;20410;-54
2024/03/17 10:33:27;;;;;;;4.05;1.80;;;12.90;99.90;;;;;;5031424;28;20513;-52
2024/03/17 10:36:01;;;;;;;4.43;1.70;;;12.90;99.90;;;;;;5031544;28;20033;-51
2024/03/17 10:38:27;;;;;;;3.85;1.77;;;12.90;99.90;;;;;;5031510;28;20095;-53
2024/03/17 10:40:54;;;;;;;3.47;1.73;;;12.90;99.90;;;;;;5031420;28;20045;-52
2024/03/17 10:43:24;;;;;;;3.13;1.80;;;12.90;99.90;;;;;;5031318;28;20442;-52
2024/03/17 10:45:51;;;;;;;5.43;1.98;;;13.00;99.90;;;;;;5031483;28;20118;-52
2024/03/17 10:48:21;;;;;;;4.30;1.67;;;13.20;99.90;;;;;;5031452;28;20497;-51
2024/03/17 10:50:49;;;;;;;4.00;1.40;;;13.40;99.90;;;;;;5031350;28;20036;-49
2024/03/17 10:53:25;;;;;;;3.13;1.63;;;13.60;99.90;;;;;;5031299;28;20036;-52
2024/03/17 10:56:03;;;;;;;4.70;1.80;;;13.80;99.90;;;;;;5031308;28;20505;-50
2024/03/17 10:58:36;;;;;;;3.47;1.55;;;14.10;99.90;;;;;;5035302;28;20037;-49
2024/03/17 11:01:07;;;;;;;3.92;1.65;;;14.30;99.90;;;;;;5035219;28;20029;-50
2024/03/17 11:03:34;;;;;;;3.47;2.08;;;14.40;99.90;;;;;;5035124;28;20037;-52
2024/03/17 11:06:05;;;;;;;3.60;1.95;;;14.50;99.90;;;;;;5034988;28;20086;-53
2024/03/17 11:08:32;;;;;;;4.05;1.88;;;14.40;99.90;;;;;;5035129;28;20434;-49
2024/03/17 11:10:58;;;;;;;4.30;1.90;;;14.40;99.90;;;;;;5034974;28;20060;-52
2024/03/17 11:13:26;;;;;;;6.03;1.77;;;14.50;99.90;;;;;;5034964;28;20025;-50
2024/03/17 11:15:53;;;;;;;5.65;2.30;;;14.50;99.90;;;;;;5035709;28;20029;-53
2024/03/17 11:18:21;;;;;;;4.75;1.83;;;14.40;99.90;;;;;;5034976;28;20053;-53
2024/03/17 11:21:22;;;;;;;4.93;1.87;;;14.30;99.90;;;;;;5034968;28;20063;-53
2024/03/17 11:23:58;;;;;;;5.60;2.42;;;14.50;99.90;;;;;;5034940;28;20954;-53
2024/03/17 11:26:32;;;;;;;4.38;1.98;;;14.70;99.90;;;;;;5034730;28;20091;-54
2024/03/17 11:28:59;;;;;;;6.53;2.08;;;14.90;99.90;;;;;;5034561;28;20510;-51
2024/03/17 11:31:42;;;;;;;2.80;1.83;;;15.10;99.90;;;;;;5034501;28;20120;-51
2024/03/17 11:34:27;;;;;;;3.33;1.85;;;15.20;99.70;;;;;;5034518;28;20036;-52
2024/03/17 11:36:54;;;;;;;4.97;2.10;;;15.20;99.40;;;;;;5034630;28;20112;-51
2024/03/17 11:39:25;;;;;;;5.15;2.08;;;15.40;99.90;;;;;;5034446;28;20478;-52
2024/03/17 11:41:51;;;;;;;3.55;1.80;;;15.70;99.90;;;;;;5034684;28;20124;-52
2024/03/17 11:44:29;;;;;;;3.42;1.90;;;16.20;98.20;;;;;;5034326;28;20033;-54
2024/03/17 11:47:05;;;;;;;5.07;2.13;;;16.40;97.90;;;;;;5034348;28;20029;-54
2024/03/17 11:49:38;;;;;;;5.38;2.15;;;16.40;98.00;;;;;;5034320;28;20053;-49
2024/03/17 11:52:12;;;;;;;4.72;2.05;;;16.50;98.30;;;;;;5034302;28;20037;-51
2024/03/17 11:54:42;;;;;;;3.50;1.90;;;16.80;98.20;;;;;;5034079;28;20033;-52
2024/03/17 11:57:22;;;;;;;6.10;2.22;;;16.70;97.70;;;;;;5034198;28;20037;-54
2024/03/17 11:59:48;;;;;;;4.32;2.00;;;16.90;97.50;;;;;;5034250;28;20479;-50
2024/03/17 12:02:21;;;;;;;4.32;2.00;;;16.80;97.40;;;;;;5034299;28;20036;-53
2024/03/17 12:04:48;;;;;;;6.18;2.22;;;16.70;97.40;;;;;;5034007;28;20493;-53
2024/03/17 12:07:15;;;;;;;4.18;2.00;;;16.60;97.40;;;;;;5033913;28;20035;-51
2024/03/17 12:09:42;;;;;;;5.07;2.10;;;16.50;97.60;;;;;;5015552;28;20053;-54
2024/03/17 12:12:37;;;;;;;3.35;1.70;;;16.30;97.70;;;;;;5034031;28;20108;-54
2024/03/17 12:15:13;;;;;;;4.75;2.22;;;16.30;98.20;;;;;;5033721;28;20049;-51
2024/03/17 12:17:39;;;;;;;6.63;2.15;;;16.20;98.10;;;;;;5034022;28;20482;-49
2024/03/17 12:20:05;;;;;;;4.88;1.80;;;16.20;98.00;;;;;;5033782;28;20022;-52
2024/03/17 12:22:35;;;;;;;5.28;1.83;;;16.50;97.50;;;;;;5033800;28;20109;-53
2024/03/17 12:25:02;;;;;;;5.20;2.40;;;16.50;97.80;;;;;;5033514;28;20396;-51
2024/03/17 12:27:28;;;;;;;4.68;2.05;;;16.70;97.90;;;;;;5016289;28;20080;-50
2024/03/17 12:29:55;;;;;;;5.40;1.92;;;16.90;96.80;;;;;;5033444;28;20478;-54
2024/03/17 12:32:23;;;;;;;5.00;2.22;;;17.10;96.60;;;;;;5033885;28;20144;-50
2024/03/17 12:34:54;;;;;;;4.37;2.00;;;17.60;95.80;;;;;;5033541;28;20031;-53
2024/03/17 12:37:36;;;;;;;4.30;1.77;;;17.70;95.80;;;;;;5033845;28;20394;-54
2024/03/17 12:40:03;;;;;;;4.13;1.88;;;18.10;95.80;;;;;;5033509;28;20467;-53
2024/03/17 12:42:29;;;;;;;3.65;1.88;;;18.20;94.80;;;;;;5033456;28;20033;-51
2024/03/17 12:45:00;;;;;;;4.10;1.90;;;18.10;95.10;;;;;;5033458;28;20374;-52
2024/03/17 12:47:28;;;;;;;3.90;1.67;;;18.00;94.90;;;;;;5033513;28;20037;-53
2024/03/17 12:50:01;;;;;;;4.35;2.17;;;17.80;94.80;;;;;;5033266;28;20056;-50
2024/03/17 12:52:31;;;;;;;4.90;2.10;;;17.80;95.00;;;;;;5033339;28;20025;-50
2024/03/17 13:00:32;;;;;;;4.88;2.35;;;17.70;94.60;;;;;;5032958;28;20471;-53
2024/03/17 13:03:07;;;;;;;4.68;1.98;;;17.70;94.80;;;;;;5032903;28;20083;-50